ASA265 PADK-PACD

Flight info

Callsign ASA265
Flight time 1h 15m
Altitude 35000
Route EBILE CHUNA
Aircraft B721/M-SDFGHRWY/C

Departure

Time 2026-04-15 21:44
Airport Adak Airport (PADK)

Arrival

Time 2026-04-15 23:00
Airport Cold Bay Airport (PACD)
Time Latitude Longitude Altitude Speed Heading
2026-04-15 21:09 51.87433 -176.64588 30 ft 0 kts 74°
2026-04-15 21:37 51.87434 -176.64585 30 ft 0 kts 65°
2026-04-15 21:38 51.87434 -176.64581 30 ft 1 kts 27°
2026-04-15 21:38 51.87443 -176.64586 30 ft 7 kts 310°
2026-04-15 21:38 51.87507 -176.64604 30 ft 17 kts 15°
2026-04-15 21:38 51.87617 -176.64548 30 ft 18 kts 15°
2026-04-15 21:39 51.87747 -176.64480 30 ft 14 kts 20°
2026-04-15 21:39 51.87855 -176.64421 30 ft 18 kts 18°
2026-04-15 21:39 51.87971 -176.64362 30 ft 18 kts 17°
2026-04-15 21:39 51.88100 -176.64338 30 ft 18 kts 359°
2026-04-15 21:40 51.88215 -176.64339 30 ft 13 kts
2026-04-15 21:40 51.88279 -176.64340 30 ft 6 kts 336°
2026-04-15 21:40 51.88297 -176.64408 30 ft 8 kts 257°
2026-04-15 21:40 51.88271 -176.64507 30 ft 11 kts 240°
2026-04-15 21:41 51.88231 -176.64618 31 ft 12 kts 239°
2026-04-15 21:41 51.88190 -176.64736 32 ft 12 kts 241°
2026-04-15 21:41 51.88157 -176.64830 32 ft 10 kts 240°
2026-04-15 21:41 51.88115 -176.64948 32 ft 14 kts 239°
2026-04-15 21:42 51.88060 -176.65106 31 ft 18 kts 240°
2026-04-15 21:42 51.87994 -176.65302 30 ft 21 kts 248°
2026-04-15 21:42 51.87942 -176.65513 28 ft 16 kts 245°
2026-04-15 21:42 51.87901 -176.65639 29 ft 5 kts 231°
2026-04-15 21:43 51.87898 -176.65644 29 ft 0 kts 199°
2026-04-15 21:43 51.87882 -176.65646 29 ft 1 kts 149°
2026-04-15 21:43 51.87870 -176.65628 30 ft 5 kts 120°
2026-04-15 21:43 51.87874 -176.65589 30 ft 6 kts 22°
2026-04-15 21:44 51.87948 -176.65425 29 ft 47 kts 60°
2026-04-15 21:44 51.88250 -176.64562 30 ft 127 kts 60°
2026-04-15 21:44 51.88787 -176.63023 238 ft 174 kts 62°
2026-04-15 21:44 51.89388 -176.61248 1051 ft 187 kts 64°
2026-04-15 21:45 51.90009 -176.59352 1923 ft 194 kts 63°
2026-04-15 21:45 51.90714 -176.57406 2660 ft 209 kts 58°
2026-04-15 21:45 51.91498 -176.55281 3242 ft 232 kts 60°
2026-04-15 21:45 51.92348 -176.52817 3849 ft 271 kts 61°
2026-04-15 21:46 51.93292 -176.50070 4512 ft 280 kts 60°
2026-04-15 21:46 51.94240 -176.47347 5203 ft 283 kts 60°
2026-04-15 21:46 51.95222 -176.44566 5879 ft 285 kts 57°
2026-04-15 21:46 51.96544 -176.42188 6529 ft 285 kts 35°
2026-04-15 21:47 51.98247 -176.40601 7168 ft 282 kts 18°
2026-04-15 21:47 52.00102 -176.39556 7831 ft 282 kts 11°
2026-04-15 21:47 52.02007 -176.38730 8509 ft 284 kts 10°
2026-04-15 21:47 52.03922 -176.37825 9195 ft 288 kts 12°
2026-04-15 21:48 52.05840 -176.36824 9881 ft 291 kts 13°
2026-04-15 21:48 52.07780 -176.35828 10516 ft 294 kts 12°
2026-04-15 21:48 52.09746 -176.34853 11174 ft 296 kts 12°
2026-04-15 21:48 52.11723 -176.33867 11842 ft 302 kts 12°
2026-04-15 21:49 52.13802 -176.32828 12497 ft 325 kts 12°
2026-04-15 21:49 52.16051 -176.31702 13092 ft 351 kts 12°
2026-04-15 21:49 52.18449 -176.30433 13696 ft 375 kts 18°
2026-04-15 21:49 52.20695 -176.28291 14219 ft 383 kts 36°
2026-04-15 21:50 52.22554 -176.25146 14732 ft 388 kts 53°
2026-04-15 21:50 52.23822 -176.21243 15255 ft 391 kts 71°
2026-04-15 21:50 52.24379 -176.16922 15781 ft 390 kts 89°
2026-04-15 21:50 52.24216 -176.12537 16342 ft 387 kts 102°
2026-04-15 21:51 52.23666 -176.08244 16885 ft 386 kts 109°
2026-04-15 21:51 52.22898 -176.04037 17453 ft 388 kts 112°
2026-04-15 21:51 52.22145 -175.99796 18034 ft 392 kts 109°
2026-04-15 21:51 52.21523 -175.95456 18554 ft 395 kts 107°
2026-04-15 21:52 52.20905 -175.91067 19049 ft 397 kts 109°
2026-04-15 21:52 52.20204 -175.86686 19558 ft 399 kts 110°
2026-04-15 21:52 52.19490 -175.82358 20076 ft 402 kts 110°
2026-04-15 21:52 52.18802 -175.77918 20591 ft 405 kts 109°
2026-04-15 21:53 52.18125 -175.73442 21131 ft 408 kts 109°
2026-04-15 21:53 52.17418 -175.68950 21678 ft 411 kts 110°
2026-04-15 21:53 52.16692 -175.64433 22230 ft 414 kts 110°
2026-04-15 21:53 52.16089 -175.59812 22781 ft 424 kts 102°
2026-04-15 21:54 52.16113 -175.54945 23344 ft 436 kts 88°
2026-04-15 21:54 52.16830 -175.50089 23839 ft 448 kts 73°
2026-04-15 21:54 52.18058 -175.45385 24315 ft 453 kts 67°
2026-04-15 21:54 52.19561 -175.40827 24802 ft 458 kts 63°
2026-04-15 21:55 52.21178 -175.36329 25293 ft 462 kts 63°
2026-04-15 21:55 52.22694 -175.31701 25776 ft 464 kts 67°
2026-04-15 21:55 52.24102 -175.26948 26297 ft 467 kts 68°
2026-04-15 21:55 52.25567 -175.22196 26811 ft 471 kts 65°
2026-04-15 21:56 52.27112 -175.17519 27332 ft 475 kts 65°
2026-04-15 21:56 52.28669 -175.12736 27863 ft 478 kts 66°
2026-04-15 21:56 52.30171 -175.07882 28404 ft 480 kts 67°
2026-04-15 21:56 52.31683 -175.02987 28957 ft 483 kts 66°
2026-04-15 21:57 52.33240 -174.98095 29521 ft 485 kts 66°
2026-04-15 21:57 52.34804 -174.93194 30075 ft 486 kts 66°
2026-04-15 21:57 52.36343 -174.88265 30537 ft 487 kts 66°
2026-04-15 21:57 52.37876 -174.83314 31005 ft 488 kts 66°
2026-04-15 21:58 52.39426 -174.78362 31394 ft 491 kts 66°
2026-04-15 21:58 52.40996 -174.73357 31639 ft 497 kts 66°
2026-04-15 21:58 52.42572 -174.68286 31892 ft 502 kts 66°
2026-04-15 21:58 52.44158 -174.63156 32150 ft 507 kts 66°
2026-04-15 21:59 52.45746 -174.58032 32403 ft 512 kts 65°
2026-04-15 21:59 52.47371 -174.52788 32664 ft 517 kts 65°
2026-04-15 21:59 52.49000 -174.47507 32926 ft 521 kts 65°
2026-04-15 21:59 52.50635 -174.42184 33188 ft 524 kts 65°
2026-04-15 22:00 52.52283 -174.36821 33453 ft 528 kts 65°
2026-04-15 22:00 52.53939 -174.31422 33715 ft 531 kts 65°
2026-04-15 22:00 52.55600 -174.25984 33973 ft 534 kts 65°
2026-04-15 22:00 52.57267 -174.20517 34194 ft 536 kts 65°
2026-04-15 22:01 52.58938 -174.15026 34411 ft 538 kts 65°
2026-04-15 22:01 52.60611 -174.09517 34633 ft 540 kts 65°
2026-04-15 22:01 52.62288 -174.03982 34853 ft 541 kts 65°
2026-04-15 22:01 52.63968 -173.98426 35008 ft 543 kts 65°
2026-04-15 22:02 52.65647 -173.92856 35000 ft 543 kts 65°
2026-04-15 22:02 52.68999 -173.81699 34993 ft 543 kts 66°
2026-04-15 22:03 52.72342 -173.70520 35007 ft 543 kts 66°
2026-04-15 22:03 52.75671 -173.59337 35021 ft 543 kts 66°
2026-04-15 22:04 52.78972 -173.48195 35015 ft 543 kts 66°
2026-04-15 22:04 52.82286 -173.36960 35006 ft 544 kts 66°
2026-04-15 22:05 52.85591 -173.25699 35003 ft 544 kts 66°
2026-04-15 22:05 52.88888 -173.14414 35008 ft 544 kts 66°
2026-04-15 22:06 52.92175 -173.03108 35004 ft 544 kts 66°
2026-04-15 22:06 52.95449 -172.91790 35004 ft 545 kts 67°
2026-04-15 22:07 52.98718 -172.80438 35003 ft 545 kts 67°
2026-04-15 22:07 53.01956 -172.69143 35006 ft 546 kts 67°
2026-04-15 22:08 53.05227 -172.57669 35004 ft 546 kts 67°
2026-04-15 22:08 53.08445 -172.46327 35008 ft 546 kts 68°
2026-04-15 22:09 53.11678 -172.34876 35004 ft 546 kts 68°
2026-04-15 22:09 53.14901 -172.23412 35004 ft 547 kts 68°
2026-04-15 22:10 53.18109 -172.11939 35006 ft 545 kts 68°
2026-04-15 22:10 53.21304 -172.00455 35010 ft 546 kts 68°
2026-04-15 22:11 53.24498 -171.88923 35006 ft 546 kts 68°
2026-04-15 22:11 53.27673 -171.77402 35011 ft 547 kts 68°
2026-04-15 22:12 53.30819 -171.65914 35007 ft 547 kts 68°
2026-04-15 22:12 53.33979 -171.54334 35010 ft 547 kts 69°
2026-04-15 22:13 53.37135 -171.42705 35015 ft 548 kts 69°
2026-04-15 22:13 53.40277 -171.31070 34943 ft 547 kts 69°
2026-04-15 22:14 53.43409 -171.19414 34937 ft 548 kts 69°
2026-04-15 22:14 53.46511 -171.07808 34942 ft 549 kts 69°
2026-04-15 22:15 53.49625 -170.96094 34939 ft 549 kts 69°
2026-04-15 22:15 53.52729 -170.84365 34939 ft 550 kts 69°
2026-04-15 22:16 53.55824 -170.72603 34937 ft 550 kts 70°
2026-04-15 22:16 53.58908 -170.60829 34938 ft 551 kts 70°
2026-04-15 22:17 53.61985 -170.49014 34938 ft 551 kts 70°
2026-04-15 22:17 53.65053 -170.37170 34941 ft 552 kts 70°
2026-04-15 22:18 53.68095 -170.25369 34937 ft 552 kts 70°
2026-04-15 22:18 53.71151 -170.13451 34938 ft 553 kts 70°
2026-04-15 22:19 53.74196 -170.01512 34936 ft 553 kts 70°
2026-04-15 22:19 53.77224 -169.89570 34945 ft 553 kts 70°
2026-04-15 22:20 53.80247 -169.77595 34938 ft 553 kts 71°
2026-04-15 22:20 53.83258 -169.65589 34938 ft 554 kts 71°
2026-04-15 22:21 53.86260 -169.53565 34938 ft 554 kts 71°
2026-04-15 22:21 53.89228 -169.41605 34937 ft 554 kts 71°
2026-04-15 22:22 53.92208 -169.29539 34939 ft 554 kts 71°
2026-04-15 22:22 53.95172 -169.17462 34940 ft 555 kts 71°
2026-04-15 22:23 53.98132 -169.05344 34938 ft 555 kts 71°
2026-04-15 22:23 54.01077 -168.93213 34943 ft 555 kts 72°
2026-04-15 22:24 54.04010 -168.81070 34946 ft 556 kts 72°
2026-04-15 22:24 54.06442 -168.70943 34942 ft 556 kts 72°
2026-04-15 22:25 54.09834 -168.56742 34940 ft 556 kts 72°
2026-04-15 22:25 54.12267 -168.46502 34945 ft 557 kts 72°
2026-04-15 22:26 54.15164 -168.34243 34938 ft 557 kts 72°
2026-04-15 22:26 54.18051 -168.21955 34942 ft 558 kts 72°
2026-04-15 22:27 54.20911 -168.09716 34937 ft 558 kts 72°
2026-04-15 22:27 54.23775 -167.97383 34945 ft 558 kts 72°
2026-04-15 22:28 54.26626 -167.85039 34938 ft 558 kts 73°
2026-04-15 22:28 54.29466 -167.72669 34947 ft 558 kts 73°
2026-04-15 22:29 54.32294 -167.60282 34943 ft 558 kts 73°
2026-04-15 22:29 54.35109 -167.47875 34945 ft 558 kts 73°
2026-04-15 22:30 54.37914 -167.35445 34939 ft 559 kts 73°
2026-04-15 22:30 54.40704 -167.22999 34949 ft 559 kts 73°
2026-04-15 22:31 54.43466 -167.10611 34942 ft 559 kts 73°
2026-04-15 22:31 54.46236 -166.98108 34947 ft 559 kts 73°
2026-04-15 22:32 54.48991 -166.85601 34943 ft 559 kts 73°
2026-04-15 22:32 54.51733 -166.73075 34951 ft 559 kts 73°
2026-04-15 22:33 54.54468 -166.60507 34948 ft 559 kts 73°
2026-04-15 22:33 54.57184 -166.47950 34952 ft 560 kts 73°
2026-04-15 22:34 54.59876 -166.35429 34946 ft 559 kts 73°
2026-04-15 22:34 54.62567 -166.22833 34955 ft 559 kts 73°
2026-04-15 22:35 54.65249 -166.10208 34954 ft 560 kts 73°
2026-04-15 22:35 54.67916 -165.97564 34474 ft 561 kts 74°
2026-04-15 22:35 54.69249 -165.91226 33934 ft 556 kts 74°
2026-04-15 22:36 54.70560 -165.84976 33297 ft 550 kts 74°
2026-04-15 22:36 54.71832 -165.78869 32703 ft 545 kts 75°
2026-04-15 22:36 54.73109 -165.72714 32086 ft 540 kts 75°
2026-04-15 22:36 54.74375 -165.66619 31503 ft 536 kts 75°
2026-04-15 22:37 54.75628 -165.60569 30930 ft 532 kts 75°
2026-04-15 22:37 54.76867 -165.54557 30366 ft 528 kts 75°
2026-04-15 22:37 54.78092 -165.48591 29752 ft 524 kts 75°
2026-04-15 22:37 54.79305 -165.42677 29101 ft 518 kts 75°
2026-04-15 22:38 54.80503 -165.36823 28465 ft 513 kts 75°
2026-04-15 22:38 54.81687 -165.31008 27845 ft 507 kts 75°
2026-04-15 22:38 54.82850 -165.25276 27229 ft 502 kts 75°
2026-04-15 22:38 54.84003 -165.19586 26633 ft 497 kts 75°
2026-04-15 22:39 54.85141 -165.13956 26053 ft 492 kts 75°
2026-04-15 22:39 54.86265 -165.08373 25477 ft 487 kts 75°
2026-04-15 22:39 54.87362 -165.02909 24909 ft 483 kts 75°
2026-04-15 22:39 54.88461 -164.97427 24374 ft 478 kts 75°
2026-04-15 22:40 54.89547 -164.91990 23835 ft 474 kts 75°
2026-04-15 22:40 54.90620 -164.86602 23254 ft 469 kts 75°
2026-04-15 22:40 54.91678 -164.81275 22610 ft 463 kts 74°
2026-04-15 22:41 54.93748 -164.70816 21386 ft 451 kts 74°
2026-04-15 22:41 54.94756 -164.65695 20792 ft 445 kts 74°
2026-04-15 22:41 54.95752 -164.60629 20201 ft 439 kts 74°
2026-04-15 22:41 54.96734 -164.55627 19626 ft 433 kts 74°
2026-04-15 22:42 54.97697 -164.50699 19069 ft 428 kts 74°
2026-04-15 22:42 54.98647 -164.45820 18517 ft 423 kts 74°
2026-04-15 22:42 54.99582 -164.41017 17928 ft 412 kts 74°
2026-04-15 22:42 55.00488 -164.36360 17304 ft 401 kts 74°
2026-04-15 22:43 55.01368 -164.31813 16687 ft 392 kts 74°
2026-04-15 22:43 55.02229 -164.27345 16083 ft 386 kts 74°
2026-04-15 22:43 55.03079 -164.22933 15553 ft 381 kts 74°
2026-04-15 22:43 55.03905 -164.18638 15056 ft 377 kts 74°
2026-04-15 22:44 55.04734 -164.14311 14567 ft 374 kts 74°
2026-04-15 22:44 55.05557 -164.10014 14085 ft 372 kts 74°
2026-04-15 22:44 55.06366 -164.05785 13575 ft 364 kts 74°
2026-04-15 22:44 55.07156 -164.01642 13026 ft 356 kts 74°
2026-04-15 22:45 55.07928 -163.97572 12504 ft 349 kts 74°
2026-04-15 22:45 55.08688 -163.93570 11977 ft 344 kts 74°
2026-04-15 22:45 55.09434 -163.89632 11462 ft 339 kts 74°
2026-04-15 22:45 55.10169 -163.85739 10945 ft 335 kts 74°
2026-04-15 22:46 55.10892 -163.81904 10460 ft 331 kts 74°
2026-04-15 22:46 55.11596 -163.78164 9973 ft 323 kts 73°
2026-04-15 22:46 55.12279 -163.74533 9434 ft 310 kts 74°
2026-04-15 22:46 55.12947 -163.70959 9019 ft 308 kts 73°
2026-04-15 22:47 55.13611 -163.67410 8610 ft 306 kts 73°
2026-04-15 22:47 55.14271 -163.63881 8227 ft 305 kts 73°
2026-04-15 22:47 55.14927 -163.60363 7838 ft 304 kts 73°
2026-04-15 22:47 55.15580 -163.56852 7452 ft 302 kts 73°
2026-04-15 22:48 55.16226 -163.53370 7078 ft 300 kts 73°
2026-04-15 22:48 55.16868 -163.49911 6704 ft 298 kts 73°
2026-04-15 22:48 55.17503 -163.46478 6342 ft 295 kts 73°
2026-04-15 22:48 55.18126 -163.43102 6289 ft 289 kts 73°
2026-04-15 22:49 55.18732 -163.39817 6104 ft 280 kts 73°
2026-04-15 22:49 55.19325 -163.36594 5919 ft 277 kts 73°
2026-04-15 22:49 55.19912 -163.33396 5719 ft 276 kts 73°
2026-04-15 22:49 55.20497 -163.30211 5533 ft 274 kts 73°
2026-04-15 22:50 55.21078 -163.27032 5344 ft 274 kts 73°
2026-04-15 22:50 55.21657 -163.23869 5184 ft 272 kts 73°
2026-04-15 22:50 55.22233 -163.20713 5045 ft 271 kts 73°
2026-04-15 22:50 55.22797 -163.17615 4913 ft 270 kts 73°
2026-04-15 22:51 55.23369 -163.14474 4788 ft 270 kts 73°
2026-04-15 22:51 55.24037 -163.11408 4634 ft 270 kts 60°
2026-04-15 22:51 55.25216 -163.08878 4494 ft 268 kts 40°
2026-04-15 22:51 55.26783 -163.07161 4353 ft 265 kts 20°
2026-04-15 22:52 55.28556 -163.06356 4227 ft 262 kts
2026-04-15 22:52 55.30353 -163.05884 4105 ft 262 kts 10°
2026-04-15 22:52 55.32114 -163.05030 3983 ft 262 kts 17°
2026-04-15 22:52 55.33794 -163.03853 3845 ft 256 kts 23°
2026-04-15 22:53 55.35348 -163.02402 3708 ft 248 kts 30°
2026-04-15 22:53 55.36762 -163.00727 3563 ft 242 kts 36°
2026-04-15 22:53 55.38038 -162.98855 3424 ft 236 kts 41°
2026-04-15 22:53 55.39179 -162.96811 3276 ft 232 kts 47°
2026-04-15 22:54 55.40184 -162.94619 3135 ft 228 kts 53°
2026-04-15 22:54 55.40935 -162.92194 2963 ft 227 kts 77°
2026-04-15 22:54 55.40958 -162.89501 2837 ft 216 kts 103°
2026-04-15 22:54 55.40328 -162.87205 2705 ft 203 kts 131°
2026-04-15 22:55 55.39335 -162.85631 2694 ft 188 kts 153°
2026-04-15 22:55 55.38151 -162.84813 2690 ft 183 kts 166°
2026-04-15 22:55 55.36949 -162.84093 2686 ft 184 kts 162°
2026-04-15 22:55 55.35768 -162.83232 2686 ft 184 kts 160°
2026-04-15 22:56 55.34627 -162.82421 2667 ft 163 kts 163°
2026-04-15 22:56 55.33667 -162.81759 2640 ft 137 kts 162°
2026-04-15 22:56 55.32803 -162.81152 2479 ft 131 kts 164°
2026-04-15 22:56 55.31958 -162.80563 2303 ft 130 kts 162°
2026-04-15 22:57 55.31122 -162.79981 2112 ft 129 kts 164°
2026-04-15 22:57 55.30299 -162.79404 1931 ft 127 kts 161°
2026-04-15 22:57 55.29484 -162.78838 1756 ft 125 kts 164°
2026-04-15 22:57 55.28688 -162.78279 1568 ft 124 kts 161°
2026-04-15 22:58 55.27889 -162.77727 1396 ft 122 kts 164°
2026-04-15 22:58 55.27097 -162.77170 1215 ft 123 kts 160°
2026-04-15 22:58 55.26309 -162.76627 1016 ft 120 kts 162°
2026-04-15 22:58 55.25544 -162.76086 834 ft 117 kts 158°
2026-04-15 22:59 55.24781 -162.75563 658 ft 117 kts 158°
2026-04-15 22:59 55.24020 -162.75023 491 ft 116 kts 155°
2026-04-15 22:59 55.23255 -162.74502 342 ft 119 kts 157°
2026-04-15 22:59 55.22480 -162.73958 178 ft 120 kts 155°
2026-04-15 23:00 55.21737 -162.73448 89 ft 104 kts 156°
2026-04-15 23:00 55.21270 -162.73126 96 ft 47 kts 158°
2026-04-15 23:00 55.20968 -162.72916 97 ft 45 kts 157°
2026-04-15 23:00 55.20694 -162.72728 101 ft 40 kts 158°
2026-04-15 23:01 55.20435 -162.72548 101 ft 41 kts 160°
2026-04-15 23:01 55.20195 -162.72385 102 ft 24 kts 156°
2026-04-15 23:01 55.20135 -162.72262 102 ft 10 kts 73°
2026-04-15 23:01 55.20163 -162.72132 103 ft 14 kts 69°
2026-04-15 23:02 55.20189 -162.72059 101 ft 6 kts 28°
2026-04-15 23:02 55.20206 -162.72053 101 ft 2 kts 351°
2026-04-15 23:02 55.20242 -162.72067 102 ft 8 kts 342°
2026-04-15 23:02 55.20269 -162.72085 101 ft 0 kts 339°